Simcha — PE7688 — position and weather

sailwx.info

Track history (hours):
 
Tides and Currents Weather Stations Pressure Air Temp Water Temp Dewpoint Dewpoint Depression Visibility Wind Speed Wind Dir Waves Ship Positions

Simcha

Last reported at 2015-Jan-23 15:31 UTC. Time now 2015-Jan-30 20:04 UTC.
Position N 51°09' E 006°50'.

Length 110 m.

Type: Ship. MMSI: 244780014.

Date/timePositionNaut miles runAvg speedWind from/ knotsBaromVisibWave heightAir tempDewpointWater temp
2015-Jan-23 15:31N 51°09' E 006°50'3 3.2
2015-Jan-23 14:34N 51°11' E 006°46'2 2.3
2015-Jan-23 13:33N 51°13' E 006°45'61 2.2
2015-Jan-22 09:30N 51°53' E 005°31'5 5.3
2015-Jan-22 08:33N 51°50' E 005°24'4 4.4
2015-Jan-22 07:34N 51°49' E 005°17'2 2.5
2015-Jan-22 06:34N 51°49' E 005°14'5 5.3
2015-Jan-22 05:33N 51°50' E 005°05'6 5.8
2015-Jan-22 04:33N 51°50' E 004°56'1 0.9
2015-Jan-22 03:17N 51°49' E 004°54'0 0.0
2015-Jan-22 02:32N 51°49' E 004°54'0 0.0
2015-Jan-22 00:29N 51°49' E 004°54'0 0.0
2015-Jan-21 23:27N 51°49' E 004°54'0 0.0
2015-Jan-21 22:28N 51°49' E 004°54'2 1.8
2015-Jan-21 21:32N 51°48' E 004°52'6 5.8
2015-Jan-21 20:33N 51°45' E 004°44'30 5.0
2015-Jan-21 14:34N 51°36' E 003°58'7 6.9
2015-Jan-21 13:34N 51°29' E 004°00'3 2.9
2015-Jan-21 12:33N 51°27' E 003°59'8 7.5
2015-Jan-21 11:33N 51°23' E 003°49'6 5.8
2015-Jan-21 10:32N 51°27' E 003°42'1 0.4
2015-Jan-21 09:05N 51°27' E 003°42'0 0.0
2015-Jan-21 08:24N 51°27' E 003°42'0 0.0
2015-Jan-21 07:24N 51°27' E 003°42'0 0.0
2015-Jan-21 06:33N 51°27' E 003°42'0 0.2
2015-Jan-21 05:32N 51°27' E 003°42'0 0.0
2015-Jan-21 04:33N 51°27' E 003°42'0 0.0
2015-Jan-21 03:32N 51°27' E 003°42'0 0.1
2015-Jan-21 02:33N 51°27' E 003°42'5 5.5
2015-Jan-21 01:33N 51°23' E 003°48'6 6.2
2015-Jan-21 00:33N 51°27' E 003°56'9 7.5
2015-Jan-20 23:22N 51°23' E 004°09'5 5.9
2015-Jan-20 22:32N 51°21' E 004°16'5 3.3
2015-Jan-20 21:07N 51°16' E 004°20'1 0.2
2015-Jan-20 16:32N 51°17' E 004°21'0 0.0
2015-Jan-20 15:30N 51°17' E 004°21'0 0.0
2015-Jan-20 13:31N 51°17' E 004°21'0 0.1
2015-Jan-20 12:33N 51°17' E 004°21'3 2.7
2015-Jan-20 11:31N 51°15' E 004°23'0 0.0
2015-Jan-20 10:33N 51°15' E 004°23'0 0.0
2015-Jan-20 09:33N 51°15' E 004°23'0 0.0
2015-Jan-20 08:33N 51°15' E 004°23'0 0.0
2015-Jan-20 07:33N 51°15' E 004°23'0 0.0
2015-Jan-20 06:33N 51°15' E 004°23'0 0.0
2015-Jan-20 05:31N 51°15' E 004°23'0 0.0
2015-Jan-20 04:28N 51°15' E 004°23'0 0.0
2015-Jan-20 03:27N 51°15' E 004°23'0 0.0
2015-Jan-20 02:33N 51°15' E 004°23'0 0.0
2015-Jan-20 01:29N 51°15' E 004°23'0 0.0
2015-Jan-20 00:33N 51°15' E 004°23'0 0.0
2015-Jan-19 23:27N 51°15' E 004°23'0 0.0
2015-Jan-19 21:13N 51°15' E 004°23'0 0.0
2015-Jan-19 20:33N 51°15' E 004°23'0 0.0
2015-Jan-19 19:33N 51°15' E 004°23'0 0.0
2015-Jan-19 18:33N 51°15' E 004°23'0 0.0
2015-Jan-19 17:33N 51°15' E 004°23'0 0.0
2015-Jan-19 16:33N 51°15' E 004°23'0 0.0
2015-Jan-19 15:33N 51°15' E 004°23'0 0.0
2015-Jan-19 14:17N 51°15' E 004°23'0 0.0
2015-Jan-19 13:33N 51°15' E 004°23'0 0.0
2015-Jan-19 12:31N 51°15' E 004°23'0 0.0
2015-Jan-19 11:29N 51°15' E 004°23'0 0.0
2015-Jan-19 10:33N 51°15' E 004°23'0 0.0
2015-Jan-19 09:33N 51°15' E 004°23'0 0.0
2015-Jan-19 08:33N 51°15' E 004°23'0 0.0
2015-Jan-19 07:33N 51°15' E 004°23'0 0.0
2015-Jan-19 06:33N 51°15' E 004°23'0 0.0
2015-Jan-19 05:33N 51°15' E 004°23'0 0.0
2015-Jan-19 04:33N 51°15' E 004°23'0 0.0
2015-Jan-19 03:33N 51°15' E 004°23'0 0.0
2015-Jan-19 02:33N 51°15' E 004°23'0 0.0
2015-Jan-19 01:33N 51°15' E 004°23'0 0.0
2015-Jan-19 00:33N 51°15' E 004°23'0 0.0
2015-Jan-18 23:33N 51°15' E 004°23'0 0.0
2015-Jan-18 22:33N 51°15' E 004°23'0 0.0
2015-Jan-18 21:33N 51°15' E 004°23'0 0.0
2015-Jan-18 20:33N 51°15' E 004°23'5 4.1
2015-Jan-18 19:24N 51°19' E 004°19'5 5.7
2015-Jan-18 18:33N 51°23' E 004°15'4 3.7
2015-Jan-18 17:28N 51°27' E 004°14'6 6.6
2015-Jan-18 16:32N 51°33' E 004°14'5 5.1
2015-Jan-18 15:33N 51°38' E 004°15'16 5.4
2015-Jan-18 12:32N 51°43' E 004°39'7 6.9
2015-Jan-18 11:33N 51°48' E 004°47'8 7.7
2015-Jan-18 10:32N 51°49' E 004°60'8 8.5
2015-Jan-18 09:33N 51°49' E 005°14'7 7.4
2015-Jan-18 08:33N 51°51' E 005°25'62 2.8
2015-Jan-17 10:33N 51°13' E 006°44'  
Track history (hours):
 
Tides and Currents Weather Stations Pressure Air Temp Water Temp Dewpoint Dewpoint Depression Visibility Wind Speed Wind Dir Waves Ship Positions

Simcha

Last reported at 2015-Jan-23 15:31 UTC. Time now 2015-Jan-30 20:04 UTC.
Position N 51°09' E 006°50'.

Length 110 m.

Type: Ship. MMSI: 244780014.

Date/timePositionNaut miles runAvg speedWind from/ knotsBaromVisibWave heightAir tempDewpointWater temp
2015-Jan-23 15:31N 51°09' E 006°50'3 3.2
2015-Jan-23 14:34N 51°11' E 006°46'2 2.3
2015-Jan-23 13:33N 51°13' E 006°45'61 2.2
2015-Jan-22 09:30N 51°53' E 005°31'5 5.3
2015-Jan-22 08:33N 51°50' E 005°24'4 4.4
2015-Jan-22 07:34N 51°49' E 005°17'2 2.5
2015-Jan-22 06:34N 51°49' E 005°14'5 5.3
2015-Jan-22 05:33N 51°50' E 005°05'6 5.8
2015-Jan-22 04:33N 51°50' E 004°56'1 0.9
2015-Jan-22 03:17N 51°49' E 004°54'0 0.0
2015-Jan-22 02:32N 51°49' E 004°54'0 0.0
2015-Jan-22 00:29N 51°49' E 004°54'0 0.0
2015-Jan-21 23:27N 51°49' E 004°54'0 0.0
2015-Jan-21 22:28N 51°49' E 004°54'2 1.8
2015-Jan-21 21:32N 51°48' E 004°52'6 5.8
2015-Jan-21 20:33N 51°45' E 004°44'30 5.0
2015-Jan-21 14:34N 51°36' E 003°58'7 6.9
2015-Jan-21 13:34N 51°29' E 004°00'3 2.9
2015-Jan-21 12:33N 51°27' E 003°59'8 7.5
2015-Jan-21 11:33N 51°23' E 003°49'6 5.8
2015-Jan-21 10:32N 51°27' E 003°42'1 0.4
2015-Jan-21 09:05N 51°27' E 003°42'0 0.0
2015-Jan-21 08:24N 51°27' E 003°42'0 0.0
2015-Jan-21 07:24N 51°27' E 003°42'0 0.0
2015-Jan-21 06:33N 51°27' E 003°42'0 0.2
2015-Jan-21 05:32N 51°27' E 003°42'0 0.0
2015-Jan-21 04:33N 51°27' E 003°42'0 0.0
2015-Jan-21 03:32N 51°27' E 003°42'0 0.1
2015-Jan-21 02:33N 51°27' E 003°42'5 5.5
2015-Jan-21 01:33N 51°23' E 003°48'6 6.2
2015-Jan-21 00:33N 51°27' E 003°56'9 7.5
2015-Jan-20 23:22N 51°23' E 004°09'5 5.9
2015-Jan-20 22:32N 51°21' E 004°16'5 3.3
2015-Jan-20 21:07N 51°16' E 004°20'1 0.2
2015-Jan-20 16:32N 51°17' E 004°21'0 0.0
2015-Jan-20 15:30N 51°17' E 004°21'0 0.0
2015-Jan-20 13:31N 51°17' E 004°21'0 0.1
2015-Jan-20 12:33N 51°17' E 004°21'3 2.7
2015-Jan-20 11:31N 51°15' E 004°23'0 0.0
2015-Jan-20 10:33N 51°15' E 004°23'0 0.0
2015-Jan-20 09:33N 51°15' E 004°23'0 0.0
2015-Jan-20 08:33N 51°15' E 004°23'0 0.0
2015-Jan-20 07:33N 51°15' E 004°23'0 0.0
2015-Jan-20 06:33N 51°15' E 004°23'0 0.0
2015-Jan-20 05:31N 51°15' E 004°23'0 0.0
2015-Jan-20 04:28N 51°15' E 004°23'0 0.0
2015-Jan-20 03:27N 51°15' E 004°23'0 0.0
2015-Jan-20 02:33N 51°15' E 004°23'0 0.0
2015-Jan-20 01:29N 51°15' E 004°23'0 0.0
2015-Jan-20 00:33N 51°15' E 004°23'0 0.0
2015-Jan-19 23:27N 51°15' E 004°23'0 0.0
2015-Jan-19 21:13N 51°15' E 004°23'0 0.0
2015-Jan-19 20:33N 51°15' E 004°23'0 0.0
2015-Jan-19 19:33N 51°15' E 004°23'0 0.0
2015-Jan-19 18:33N 51°15' E 004°23'0 0.0
2015-Jan-19 17:33N 51°15' E 004°23'0 0.0
2015-Jan-19 16:33N 51°15' E 004°23'0 0.0
2015-Jan-19 15:33N 51°15' E 004°23'0 0.0
2015-Jan-19 14:17N 51°15' E 004°23'0 0.0
2015-Jan-19 13:33N 51°15' E 004°23'0 0.0
2015-Jan-19 12:31N 51°15' E 004°23'0 0.0
2015-Jan-19 11:29N 51°15' E 004°23'0 0.0
2015-Jan-19 10:33N 51°15' E 004°23'0 0.0
2015-Jan-19 09:33N 51°15' E 004°23'0 0.0
2015-Jan-19 08:33N 51°15' E 004°23'0 0.0
2015-Jan-19 07:33N 51°15' E 004°23'0 0.0
2015-Jan-19 06:33N 51°15' E 004°23'0 0.0
2015-Jan-19 05:33N 51°15' E 004°23'0 0.0
2015-Jan-19 04:33N 51°15' E 004°23'0 0.0
2015-Jan-19 03:33N 51°15' E 004°23'0 0.0
2015-Jan-19 02:33N 51°15' E 004°23'0 0.0
2015-Jan-19 01:33N 51°15' E 004°23'0 0.0
2015-Jan-19 00:33N 51°15' E 004°23'0 0.0
2015-Jan-18 23:33N 51°15' E 004°23'0 0.0
2015-Jan-18 22:33N 51°15' E 004°23'0 0.0
2015-Jan-18 21:33N 51°15' E 004°23'0 0.0
2015-Jan-18 20:33N 51°15' E 004°23'5 4.1
2015-Jan-18 19:24N 51°19' E 004°19'5 5.7
2015-Jan-18 18:33N 51°23' E 004°15'4 3.7
2015-Jan-18 17:28N 51°27' E 004°14'6 6.6
2015-Jan-18 16:32N 51°33' E 004°14'5 5.1
2015-Jan-18 15:33N 51°38' E 004°15'16 5.4
2015-Jan-18 12:32N 51°43' E 004°39'7 6.9
2015-Jan-18 11:33N 51°48' E 004°47'8 7.7
2015-Jan-18 10:32N 51°49' E 004°60'8 8.5
2015-Jan-18 09:33N 51°49' E 005°14'7 7.4
2015-Jan-18 08:33N 51°51' E 005°25'62 2.8
2015-Jan-17 10:33N 51°13' E 006°44'  

Dump ship's entire track history